Time;durP1;ratioP1;P1;durP2;ratioP2;P2;SDS_P1;SDS_P2;PMS_P1;PMS_P2;Temp;Humidity;BMP_temperature;BMP_pressure;BME280_temperature;BME280_humidity;BME280_pressure;Samples;Min_cycle;Max_cycle;Signal;HPM_P1;HPM_P2
2023/07/11 00:00:39;;;;;;;3.90;2.10;;;;;;;;;;5054400;28;21779;-82
2023/07/11 00:03:05;;;;;;;9.07;2.58;;;;;;;;;;5057225;28;20026;-80
2023/07/11 00:05:31;;;;;;;5.40;2.30;;;;;;;;;;5057425;28;20063;-79
2023/07/11 00:07:57;;;;;;;5.95;2.50;;;;;;;;;;5054468;28;20237;-81
2023/07/11 00:10:23;;;;;;;5.25;2.40;;;;;;;;;;5053111;28;20033;-80
2023/07/11 00:12:48;;;;;;;8.75;2.45;;;;;;;;;;5055901;28;20046;-80
2023/07/11 00:15:16;;;;;;;4.90;2.05;;;;;;;;;;5057080;28;20049;-80
2023/07/11 00:17:42;;;;;;;5.38;2.00;;;;;;;;;;5054992;28;20467;-80
2023/07/11 00:20:11;;;;;;;6.53;2.10;;;;;;;;;;5054601;28;20040;-79
2023/07/11 00:22:37;;;;;;;5.32;1.92;;;;;;;;;;5059003;28;20112;-79
2023/07/11 00:25:04;;;;;;;7.63;2.80;;;;;;;;;;5058604;28;20120;-80
2023/07/11 00:27:31;;;;;;;5.82;2.15;;;;;;;;;;5057941;28;20028;-81
2023/07/11 00:29:57;;;;;;;7.25;2.55;;;;;;;;;;5059426;28;20186;-80
2023/07/11 00:32:23;;;;;;;8.30;2.47;;;;;;;;;;5058420;28;20033;-80
2023/07/11 00:34:49;;;;;;;5.90;2.30;;;;;;;;;;5058304;28;20060;-81
2023/07/11 00:37:15;;;;;;;5.38;2.10;;;;;;;;;;5057983;28;20033;-79
2023/07/11 00:39:41;;;;;;;5.78;2.25;;;;;;;;;;5058621;28;20037;-81
2023/07/11 00:42:08;;;;;;;5.20;1.92;;;;;;;;;;5058980;28;20040;-81
2023/07/11 00:44:48;;;;;;;3.90;1.63;;;;;;;;;;5060939;28;20033;-80
2023/07/11 00:47:14;;;;;;;7.88;2.17;;;;;;;;;;5052779;28;20032;-79
2023/07/11 00:49:41;;;;;;;6.53;2.10;;;;;;;;;;5057083;28;20100;-80
2023/07/11 00:52:07;;;;;;;4.80;2.08;;;;;;;;;;5056986;28;20176;-81
2023/07/11 00:54:34;;;;;;;4.57;1.55;;;;;;;;;;5056703;28;20063;-80
2023/07/11 00:57:02;;;;;;;3.33;1.58;;;;;;;;;;5052716;28;20029;-81
2023/07/11 00:59:29;;;;;;;7.30;2.25;;;;;;;;;;5057002;28;20150;-81
2023/07/11 01:02:01;;;;;;;5.05;1.85;;;;;;;;;;5057172;28;20032;-80
2023/07/11 01:04:27;;;;;;;5.38;1.98;;;;;;;;;;5056560;28;20038;-78
2023/07/11 01:06:53;;;;;;;6.47;1.55;;;;;;;;;;5056102;28;20477;-80
2023/07/11 01:09:19;;;;;;;8.07;2.40;;;;;;;;;;5057475;28;20229;-80
2023/07/11 01:11:59;;;;;;;5.97;2.30;;;;;;;;;;5056290;28;20051;-79
2023/07/11 01:14:26;;;;;;;5.97;2.10;;;;;;;;;;5052536;28;20068;-80
2023/07/11 01:16:52;;;;;;;3.42;1.90;;;;;;;;;;5053428;28;20458;-79
2023/07/11 01:19:18;;;;;;;6.88;2.38;;;;;;;;;;5055686;28;20039;-79
2023/07/11 01:21:45;;;;;;;8.15;2.20;;;;;;;;;;5056091;28;20025;-80
2023/07/11 01:24:11;;;;;;;4.20;2.00;;;;;;;;;;5054048;28;20028;-80
2023/07/11 01:26:37;;;;;;;4.80;1.50;;;;;;;;;;5051049;28;20029;-80
2023/07/11 01:29:04;;;;;;;5.32;2.45;;;;;;;;;;5053979;28;20040;-80
2023/07/11 01:31:33;;;;;;;4.63;1.90;;;;;;;;;;5054344;28;20044;-80
2023/07/11 01:33:59;;;;;;;2.78;1.67;;;;;;;;;;5055361;28;20032;-80
2023/07/11 01:36:25;;;;;;;6.63;2.20;;;;;;;;;;5056351;28;20440;-79
2023/07/11 01:38:51;;;;;;;8.15;2.40;;;;;;;;;;5051329;28;20021;-80
2023/07/11 01:41:17;;;;;;;3.75;1.70;;;;;;;;;;5055765;28;20033;-80
2023/07/11 01:43:43;;;;;;;8.57;2.38;;;;;;;;;;5054193;28;20085;-79
2023/07/11 01:46:09;;;;;;;5.32;2.25;;;;;;;;;;5050092;28;20029;-81
2023/07/11 01:48:35;;;;;;;6.25;2.05;;;;;;;;;;5055272;28;20044;-79
2023/07/11 01:51:02;;;;;;;5.88;2.03;;;;;;;;;;5055688;28;20055;-79
2023/07/11 01:53:28;;;;;;;5.47;2.08;;;;;;;;;;5056760;28;20033;-79
2023/07/11 01:55:55;;;;;;;4.18;1.60;;;;;;;;;;5061224;28;20087;-80
2023/07/11 01:58:21;;;;;;;4.00;1.90;;;;;;;;;;5058184;28;20029;-79
2023/07/11 02:00:47;;;;;;;5.53;2.13;;;;;;;;;;5057243;28;20028;-79
2023/07/11 02:03:13;;;;;;;4.20;2.13;;;;;;;;;;5056203;28;20029;-81
2023/07/11 02:05:40;;;;;;;4.60;2.03;;;;;;;;;;5059539;28;20025;-79
2023/07/11 02:08:06;;;;;;;5.55;2.15;;;;;;;;;;5055338;28;20033;-78
2023/07/11 02:10:32;;;;;;;7.32;2.60;;;;;;;;;;5055740;28;20021;-81
2023/07/11 02:12:58;;;;;;;5.95;2.40;;;;;;;;;;5056698;28;20047;-79
2023/07/11 02:15:24;;;;;;;4.57;2.20;;;;;;;;;;5054088;28;20033;-80
2023/07/11 02:17:51;;;;;;;5.10;1.75;;;;;;;;;;5053892;28;20400;-80
2023/07/11 02:20:17;;;;;;;3.45;2.10;;;;;;;;;;5051495;28;20021;-81
2023/07/11 02:22:43;;;;;;;2.08;1.48;;;;;;;;;;5054048;28;20131;-78
2023/07/11 02:25:09;;;;;;;6.07;2.55;;;;;;;;;;5054646;28;20048;-79
2023/07/11 02:27:35;;;;;;;4.68;2.03;;;;;;;;;;5053620;28;20029;-80
2023/07/11 02:30:01;;;;;;;6.80;2.17;;;;;;;;;;5053195;28;20032;-79
2023/07/11 02:32:27;;;;;;;5.40;1.65;;;;;;;;;;5058482;28;20076;-79
2023/07/11 02:34:53;;;;;;;7.80;2.17;;;;;;;;;;5054884;28;20148;-80
2023/07/11 02:37:19;;;;;;;3.72;1.63;;;;;;;;;;5055201;28;20032;-79
2023/07/11 02:39:45;;;;;;;4.50;1.98;;;;;;;;;;5053469;28;20036;-82
2023/07/11 02:42:11;;;;;;;5.72;2.00;;;;;;;;;;5052340;28;20039;-80
2023/07/11 02:44:37;;;;;;;4.57;2.00;;;;;;;;;;5053998;28;20232;-80
2023/07/11 02:47:03;;;;;;;5.82;2.22;;;;;;;;;;5049178;28;20072;-79
2023/07/11 02:49:29;;;;;;;4.07;2.17;;;;;;;;;;5057547;28;20531;-81
2023/07/11 02:51:55;;;;;;;7.47;2.22;;;;;;;;;;5051117;28;20029;-78
2023/07/11 02:54:22;;;;;;;5.72;1.63;;;;;;;;;;5053398;28;20036;-81
2023/07/11 02:56:48;;;;;;;7.53;1.95;;;;;;;;;;5052640;28;20078;-80
2023/07/11 02:59:13;;;;;;;7.22;2.28;;;;;;;;;;5054228;28;20030;-79
2023/07/11 03:01:39;;;;;;;8.40;1.73;;;;;;;;;;5048457;28;20134;-81
2023/07/11 03:04:05;;;;;;;9.55;1.85;;;;;;;;;;5053668;28;20039;-81
2023/07/11 03:06:32;;;;;;;10.55;2.40;;;;;;;;;;5051582;28;20128;-79
2023/07/11 03:08:58;;;;;;;4.32;2.15;;;;;;;;;;5052361;28;20068;-81
2023/07/11 03:11:23;;;;;;;5.70;2.63;;;;;;;;;;5054468;28;20028;-81
2023/07/11 03:13:49;;;;;;;3.67;2.08;;;;;;;;;;5054354;28;20037;-79
2023/07/11 03:16:15;;;;;;;3.40;1.58;;;;;;;;;;5053831;28;20032;-79
2023/07/11 03:18:41;;;;;;;5.97;2.40;;;;;;;;;;5050768;28;20098;-80
2023/07/11 03:21:07;;;;;;;3.08;2.10;;;;;;;;;;5046754;28;20037;-81
2023/07/11 03:23:33;;;;;;;6.97;2.75;;;;;;;;;;5046968;28;20621;-77
2023/07/11 03:25:59;;;;;;;9.32;2.22;;;;;;;;;;5053867;28;20038;-80
2023/07/11 03:28:25;;;;;;;8.80;2.78;;;;;;;;;;5058004;28;20032;-80
2023/07/11 03:30:51;;;;;;;5.93;2.47;;;;;;;;;;5051235;28;20136;-78
2023/07/11 03:33:18;;;;;;;6.82;2.00;;;;;;;;;;5053578;28;20672;-80
2023/07/11 03:35:48;;;;;;;8.18;2.33;;;;;;;;;;5053109;28;20044;-81
2023/07/11 03:38:14;;;;;;;4.90;2.05;;;;;;;;;;5056082;28;20064;-80
2023/07/11 03:40:40;;;;;;;6.25;2.30;;;;;;;;;;5050569;28;20025;-80
2023/07/11 03:43:06;;;;;;;7.10;2.40;;;;;;;;;;5053589;28;20051;-80
2023/07/11 03:45:32;;;;;;;3.17;1.95;;;;;;;;;;5057174;28;20028;-80
2023/07/11 03:47:58;;;;;;;4.35;2.17;;;;;;;;;;5051431;28;20112;-78
2023/07/11 03:50:24;;;;;;;9.95;2.40;;;;;;;;;;5047905;28;21642;-80
2023/07/11 03:52:50;;;;;;;4.90;2.17;;;;;;;;;;5052551;28;20108;-79
2023/07/11 03:55:16;;;;;;;6.07;2.42;;;;;;;;;;5050795;28;20064;-80
2023/07/11 03:57:42;;;;;;;7.43;2.40;;;;;;;;;;5055023;28;20853;-79
2023/07/11 04:00:10;;;;;;;5.43;2.15;;;;;;;;;;5052089;28;20120;-79
2023/07/11 04:02:36;;;;;;;4.47;2.15;;;;;;;;;;5050665;28;20039;-80
2023/07/11 04:05:02;;;;;;;5.40;2.30;;;;;;;;;;5054970;28;20086;-80
2023/07/11 04:07:28;;;;;;;5.35;2.05;;;;;;;;;;5049812;28;20036;-80
2023/07/11 04:09:54;;;;;;;4.72;2.50;;;;;;;;;;5053577;28;20043;-80
2023/07/11 04:12:22;;;;;;;8.20;2.25;;;;;;;;;;5050536;28;20032;-80
2023/07/11 04:14:48;;;;;;;4.20;2.08;;;;;;;;;;5047972;28;20029;-80
2023/07/11 04:17:14;;;;;;;5.45;2.53;;;;;;;;;;5050832;28;20564;-79
2023/07/11 04:19:40;;;;;;;4.70;2.25;;;;;;;;;;5047539;28;20033;-80
2023/07/11 04:22:06;;;;;;;8.23;2.45;;;;;;;;;;5050727;28;20875;-81
2023/07/11 04:24:32;;;;;;;6.93;2.50;;;;;;;;;;5053686;28;20037;-80
2023/07/11 04:26:58;;;;;;;7.55;2.75;;;;;;;;;;5066916;28;20044;-81
2023/07/11 04:29:24;;;;;;;8.48;2.65;;;;;;;;;;5050984;28;20029;-80
2023/07/11 04:31:50;;;;;;;4.82;2.40;;;;;;;;;;5053626;28;20087;-79
2023/07/11 04:34:16;;;;;;;6.82;2.80;;;;;;;;;;5050682;28;20034;-80
2023/07/11 04:36:42;;;;;;;4.45;2.30;;;;;;;;;;5050362;28;20373;-77
2023/07/11 04:39:09;;;;;;;11.82;3.05;;;;;;;;;;5050707;28;20096;-81
2023/07/11 04:41:35;;;;;;;8.48;3.22;;;;;;;;;;5051287;28;21750;-80
2023/07/11 04:44:01;;;;;;;4.15;2.35;;;;;;;;;;5056440;28;20067;-80
2023/07/11 04:46:27;;;;;;;6.45;2.45;;;;;;;;;;5052252;28;20046;-79
2023/07/11 04:48:53;;;;;;;8.13;2.17;;;;;;;;;;5050312;28;20113;-80
2023/07/11 04:51:19;;;;;;;5.03;2.05;;;;;;;;;;5046068;28;20052;-80
2023/07/11 04:53:45;;;;;;;5.75;2.60;;;;;;;;;;5048678;28;20033;-80
2023/07/11 04:56:11;;;;;;;7.43;2.40;;;;;;;;;;5051622;28;20111;-79
2023/07/11 04:58:40;;;;;;;9.00;2.17;;;;;;;;;;5055327;28;20020;-79
2023/07/11 05:01:10;;;;;;;9.18;3.00;;;;;;;;;;5055563;28;20029;-81
2023/07/11 05:03:37;;;;;;;8.73;2.70;;;;;;;;;;5065356;28;20044;-79
2023/07/11 05:06:04;;;;;;;7.18;2.47;;;;;;;;;;5062881;28;20182;-78
2023/07/11 05:08:30;;;;;;;5.28;2.58;;;;;;;;;;5065908;28;20038;-77
2023/07/11 05:11:02;;;;;;;5.70;2.22;;;;;;;;;;5060366;28;20083;-76
2023/07/11 05:13:29;;;;;;;6.80;2.45;;;;;;;;;;5069314;28;20136;-77
2023/07/11 05:16:02;;;;;;;8.10;2.67;;;;;;;;;;5064626;28;20036;-77
2023/07/11 05:18:28;;;;;;;6.43;2.42;;;;;;;;;;5067402;28;20164;-78
2023/07/11 05:20:57;;;;;;;7.15;2.45;;;;;;;;;;5071226;28;20029;-77
2023/07/11 05:23:27;;;;;;;9.55;2.55;;;;;;;;;;5067770;28;20047;-78
2023/07/11 05:25:55;;;;;;;8.88;2.25;;;;;;;;;;5060622;28;20017;-78
2023/07/11 05:28:22;;;;;;;9.23;2.33;;;;;;;;;;5065593;28;20022;-78
2023/07/11 05:30:48;;;;;;;5.90;2.20;;;;;;;;;;5064450;28;20037;-77
2023/07/11 05:33:14;;;;;;;7.90;2.80;;;;;;;;;;5064336;28;20025;-78
2023/07/11 05:35:51;;;;;;;11.90;2.65;;;;;;;;;;5062324;28;21676;-77
2023/07/11 05:38:17;;;;;;;7.85;2.58;;;;;;;;;;5063092;28;20270;-79
2023/07/11 05:40:43;;;;;;;4.72;2.80;;;;;;;;;;5066371;28;20029;-79
2023/07/11 05:43:09;;;;;;;7.45;3.20;;;;;;;;;;5064026;28;20018;-79
2023/07/11 05:45:35;;;;;;;7.40;3.30;;;;;;;;;;5063052;28;20914;-78
2023/07/11 05:48:01;;;;;;;6.57;2.38;;;;;;;;;;5063262;28;20043;-81
2023/07/11 05:50:27;;;;;;;5.40;2.47;;;;;;;;;;5065383;28;20038;-79
2023/07/11 05:52:53;;;;;;;6.13;2.30;;;;;;;;;;5060469;28;20017;-78
2023/07/11 05:55:19;;;;;;;4.88;2.25;;;;;;;;;;5064817;28;20034;-79
2023/07/11 05:57:45;;;;;;;6.70;2.47;;;;;;;;;;5065331;28;20052;-79
2023/07/11 06:00:11;;;;;;;7.65;2.40;;;;;;;;;;5064372;28;20014;-77
2023/07/11 06:02:37;;;;;;;4.78;2.58;;;;;;;;;;5065371;28;20304;-77
2023/07/11 06:05:03;;;;;;;6.30;2.20;;;;;;;;;;5067999;28;20021;-80
2023/07/11 06:07:30;;;;;;;6.70;2.30;;;;;;;;;;5055731;28;20021;-79
2023/07/11 06:09:56;;;;;;;11.38;2.58;;;;;;;;;;5051228;28;20037;-79
2023/07/11 06:12:25;;;;;;;16.05;2.55;;;;;;;;;;5047640;28;20029;-79
2023/07/11 06:14:51;;;;;;;6.85;2.90;;;;;;;;;;5046286;28;20048;-80
2023/07/11 06:17:17;;;;;;;10.93;2.38;;;;;;;;;;5046699;28;20057;-80
2023/07/11 06:19:43;;;;;;;3.45;1.80;;;;;;;;;;5044082;28;20029;-80
2023/07/11 06:22:10;;;;;;;4.30;2.15;;;;;;;;;;5045997;28;20040;-81
2023/07/11 06:24:37;;;;;;;5.72;1.98;;;;;;;;;;5044243;28;20033;-80
2023/07/11 06:27:03;;;;;;;8.70;2.38;;;;;;;;;;5042973;28;20132;-80
2023/07/11 06:29:30;;;;;;;5.72;2.58;;;;;;;;;;5043114;28;20086;-80
2023/07/11 06:31:56;;;;;;;10.07;2.88;;;;;;;;;;5044648;28;20049;-80
2023/07/11 06:34:22;;;;;;;8.40;2.53;;;;;;;;;;5042009;28;20048;-79
2023/07/11 06:36:48;;;;;;;9.90;2.67;;;;;;;;;;5043666;28;20029;-79
2023/07/11 06:39:14;;;;;;;8.40;2.53;;;;;;;;;;5044888;28;20366;-80
2023/07/11 06:41:40;;;;;;;6.88;2.50;;;;;;;;;;5051044;28;20694;-79
2023/07/11 06:44:08;;;;;;;3.72;2.20;;;;;;;;;;5045301;28;20021;-79
2023/07/11 06:46:34;;;;;;;6.82;2.33;;;;;;;;;;5045242;28;20033;-80
2023/07/11 06:49:00;;;;;;;6.40;2.55;;;;;;;;;;5042930;28;20035;-79
2023/07/11 06:51:27;;;;;;;6.75;2.42;;;;;;;;;;5046124;28;20041;-79
2023/07/11 06:53:54;;;;;;;10.55;2.50;;;;;;;;;;5045507;28;20043;-80
2023/07/11 06:56:20;;;;;;;8.52;2.67;;;;;;;;;;5042997;28;20033;-80
2023/07/11 06:58:47;;;;;;;6.78;2.40;;;;;;;;;;5048237;28;20088;-79
2023/07/11 07:01:13;;;;;;;5.25;2.35;;;;;;;;;;5042761;28;21652;-80
2023/07/11 07:03:40;;;;;;;11.10;4.07;;;;;;;;;;5045625;28;20056;-79
2023/07/11 07:06:08;;;;;;;8.85;3.13;;;;;;;;;;5044454;28;20051;-79
2023/07/11 07:08:34;;;;;;;8.55;3.15;;;;;;;;;;5044524;28;20029;-80
2023/07/11 07:11:01;;;;;;;7.60;2.80;;;;;;;;;;5043776;28;20033;-80
2023/07/11 07:13:27;;;;;;;9.85;2.65;;;;;;;;;;5045582;28;20033;-79
2023/07/11 07:15:54;;;;;;;13.05;2.08;;;;;;;;;;5041830;28;20036;-79
2023/07/11 07:18:20;;;;;;;4.22;2.30;;;;;;;;;;5044103;28;20029;-80
2023/07/11 07:20:47;;;;;;;8.45;3.30;;;;;;;;;;5042132;28;20414;-79
2023/07/11 07:23:14;;;;;;;8.23;2.42;;;;;;;;;;5043516;28;20029;-78
2023/07/11 07:25:40;;;;;;;6.47;2.50;;;;;;;;;;5051032;28;20076;-79
2023/07/11 07:28:07;;;;;;;7.55;2.83;;;;;;;;;;5043831;28;20151;-81
2023/07/11 07:30:35;;;;;;;12.38;2.80;;;;;;;;;;5047793;28;22198;-80
2023/07/11 07:33:01;;;;;;;4.22;2.42;;;;;;;;;;5042651;28;20065;-80
2023/07/11 07:35:27;;;;;;;6.70;2.53;;;;;;;;;;5043140;28;21769;-81
2023/07/11 07:37:53;;;;;;;11.07;2.50;;;;;;;;;;5042600;28;20021;-80
2023/07/11 07:40:19;;;;;;;9.65;2.65;;;;;;;;;;5044523;28;20385;-80
2023/07/11 07:42:45;;;;;;;9.52;2.25;;;;;;;;;;5043198;28;20124;-80
2023/07/11 07:45:11;;;;;;;8.10;3.03;;;;;;;;;;5042580;28;20021;-80
2023/07/11 07:47:37;;;;;;;6.93;2.30;;;;;;;;;;5043497;28;20025;-80
2023/07/11 07:50:03;;;;;;;6.47;2.60;;;;;;;;;;5041653;28;20029;-81
2023/07/11 07:52:29;;;;;;;6.82;2.65;;;;;;;;;;5044866;28;20025;-80
2023/07/11 07:54:55;;;;;;;4.22;2.70;;;;;;;;;;5044626;28;20457;-80
2023/07/11 07:57:21;;;;;;;7.35;2.97;;;;;;;;;;5041766;28;20040;-80
2023/07/11 07:59:47;;;;;;;8.35;2.78;;;;;;;;;;5045853;28;20044;-81
2023/07/11 08:02:13;;;;;;;10.40;2.80;;;;;;;;;;5043849;28;20040;-80
2023/07/11 08:04:39;;;;;;;12.55;2.17;;;;;;;;;;5041831;28;20446;-80
2023/07/11 08:07:05;;;;;;;6.63;2.25;;;;;;;;;;5043383;28;20044;-79
2023/07/11 08:09:32;;;;;;;9.43;2.10;;;;;;;;;;5038869;28;20362;-81
2023/07/11 08:12:05;;;;;;;3.53;1.95;;;;;;;;;;5041341;28;20078;-80
2023/07/11 08:14:33;;;;;;;5.60;2.08;;;;;;;;;;5043361;28;20055;-81
2023/07/11 08:17:00;;;;;;;6.93;2.00;;;;;;;;;;5040871;28;20116;-81
2023/07/11 08:19:26;;;;;;;5.38;2.25;;;;;;;;;;5041247;28;20036;-81
2023/07/11 08:21:52;;;;;;;7.07;2.25;;;;;;;;;;5041025;28;20369;-80
2023/07/11 08:24:18;;;;;;;12.95;2.67;;;;;;;;;;5042071;28;20044;-80
2023/07/11 08:26:44;;;;;;;4.88;2.17;;;;;;;;;;5044758;28;20094;-81
2023/07/11 08:29:13;;;;;;;4.97;1.88;;;;;;;;;;5041218;28;20132;-78
2023/07/11 08:31:39;;;;;;;4.78;1.83;;;;;;;;;;5040357;28;20037;-80
2023/07/11 08:34:05;;;;;;;11.98;2.40;;;;;;;;;;5042733;28;20029;-79
2023/07/11 08:36:31;;;;;;;8.85;2.17;;;;;;;;;;5047213;28;20039;-80
2023/07/11 08:38:57;;;;;;;4.70;1.80;;;;;;;;;;5043476;28;20094;-80
2023/07/11 08:41:23;;;;;;;5.28;2.35;;;;;;;;;;5043496;28;20021;-80
2023/07/11 08:43:49;;;;;;;4.15;2.00;;;;;;;;;;5047830;28;20033;-81
2023/07/11 08:46:17;;;;;;;5.43;2.00;;;;;;;;;;5047005;28;20128;-78
2023/07/11 08:48:47;;;;;;;7.10;1.88;;;;;;;;;;5044424;28;20104;-80
2023/07/11 08:51:21;;;;;;;5.60;1.90;;;;;;;;;;5041301;28;20029;-80
2023/07/11 08:53:57;;;;;;;4.28;1.65;;;;;;;;;;5049279;28;20041;-79
2023/07/11 08:56:29;;;;;;;4.20;2.08;;;;;;;;;;5051634;28;20021;-80
2023/07/11 08:58:55;;;;;;;6.97;2.20;;;;;;;;;;5048505;28;20630;-81
2023/07/11 09:01:32;;;;;;;4.13;1.90;;;;;;;;;;5043571;28;20048;-80
2023/07/11 09:04:00;;;;;;;5.93;1.98;;;;;;;;;;5045090;28;20037;-80
2023/07/11 09:06:31;;;;;;;8.48;1.50;;;;;;;;;;5040548;28;20086;-80
2023/07/11 09:08:57;;;;;;;4.95;1.95;;;;;;;;;;5047959;28;20026;-81
2023/07/11 09:11:23;;;;;;;5.47;2.42;;;;;;;;;;5052022;28;20495;-81
2023/07/11 09:14:08;;;;;;;5.68;1.92;;;;;;;;;;5047430;28;20037;-79
2023/07/11 09:16:37;;;;;;;5.45;2.17;;;;;;;;;;5049132;28;20029;-80
2023/07/11 09:19:03;;;;;;;5.45;2.38;;;;;;;;;;5042949;28;20143;-80
2023/07/11 09:21:40;;;;;;;3.67;2.00;;;;;;;;;;5042901;28;21696;-82
2023/07/11 09:24:19;;;;;;;4.05;1.95;;;;;;;;;;5040333;28;20116;-80
2023/07/11 09:26:49;;;;;;;7.22;2.35;;;;;;;;;;5045202;28;20060;-80
2023/07/11 09:29:16;;;;;;;4.57;1.65;;;;;;;;;;5042493;28;20457;-80
2023/07/11 09:31:50;;;;;;;4.95;2.13;;;;;;;;;;5039339;28;20499;-80
2023/07/11 09:34:20;;;;;;;9.80;2.50;;;;;;;;;;5045873;28;20033;-81
2023/07/11 09:36:49;;;;;;;5.30;2.00;;;;;;;;;;5049745;28;20051;-79
2023/07/11 09:39:18;;;;;;;7.55;2.08;;;;;;;;;;5045044;28;20025;-80
2023/07/11 09:41:56;;;;;;;6.80;2.28;;;;;;;;;;5045640;28;20026;-80
2023/07/11 09:44:22;;;;;;;6.55;2.80;;;;;;;;;;5041976;28;20021;-81
2023/07/11 09:46:50;;;;;;;6.07;1.85;;;;;;;;;;5046514;28;20116;-79
2023/07/11 09:49:28;;;;;;;4.25;2.22;;;;;;;;;;5049397;28;20021;-78
2023/07/11 09:51:55;;;;;;;5.85;1.90;;;;;;;;;;5044127;28;20444;-80
2023/07/11 09:54:23;;;;;;;3.50;1.92;;;;;;;;;;5044995;28;20037;-80
2023/07/11 09:56:51;;;;;;;3.33;2.10;;;;;;;;;;5044117;28;20386;-80
2023/07/11 09:59:18;;;;;;;4.20;1.98;;;;;;;;;;5044014;28;20040;-81
2023/07/11 10:01:46;;;;;;;3.95;2.22;;;;;;;;;;5046694;28;20024;-80
2023/07/11 10:04:16;;;;;;;4.63;1.98;;;;;;;;;;5044165;28;20025;-80
2023/07/11 10:06:46;;;;;;;3.17;1.80;;;;;;;;;;5043136;28;20037;-81
2023/07/11 10:09:17;;;;;;;5.53;2.40;;;;;;;;;;5047883;28;20021;-80
2023/07/11 10:11:47;;;;;;;6.28;2.15;;;;;;;;;;5045748;28;20037;-80
2023/07/11 10:14:17;;;;;;;4.85;1.90;;;;;;;;;;5042291;28;20048;-80
2023/07/11 10:16:48;;;;;;;3.78;2.15;;;;;;;;;;5042029;28;20132;-79
2023/07/11 10:19:16;;;;;;;3.40;2.58;;;;;;;;;;5044561;28;20017;-80
2023/07/11 10:21:45;;;;;;;7.15;1.98;;;;;;;;;;5046364;28;20480;-81
2023/07/11 10:24:20;;;;;;;4.22;2.25;;;;;;;;;;5042849;28;20029;-81
2023/07/11 10:26:48;;;;;;;5.95;2.45;;;;;;;;;;5048926;28;20564;-79
2023/07/11 10:29:19;;;;;;;9.98;2.28;;;;;;;;;;5042891;28;20128;-80
2023/07/11 10:32:03;;;;;;;4.55;2.20;;;;;;;;;;5043306;28;20039;-80
2023/07/11 10:34:32;;;;;;;6.30;2.08;;;;;;;;;;5041637;28;20036;-80
2023/07/11 10:37:27;;;;;;;4.15;2.40;;;;;;;;;;5048552;28;20346;-80
2023/07/11 10:39:56;;;;;;;4.28;2.00;;;;;;;;;;5034902;28;20374;-79
2023/07/11 10:42:25;;;;;;;7.45;2.30;;;;;;;;;;5044519;28;20563;-79
2023/07/11 10:44:54;;;;;;;5.35;2.20;;;;;;;;;;5037760;28;20033;-80
2023/07/11 10:47:26;;;;;;;5.90;2.42;;;;;;;;;;5043258;28;20965;-80
2023/07/11 10:49:52;;;;;;;5.47;2.95;;;;;;;;;;5043647;28;20362;-79
2023/07/11 10:52:26;;;;;;;6.13;2.30;;;;;;;;;;5050052;28;20071;-79
2023/07/11 10:55:11;;;;;;;3.88;2.10;;;;;;;;;;5044205;28;20116;-82
2023/07/11 10:57:37;;;;;;;4.20;2.55;;;;;;;;;;5047683;28;20100;-80
2023/07/11 11:00:09;;;;;;;5.20;2.17;;;;;;;;;;5042279;28;21105;-81
2023/07/11 11:02:52;;;;;;;5.50;2.33;;;;;;;;;;5043633;28;20033;-81
2023/07/11 11:05:18;;;;;;;6.30;2.75;;;;;;;;;;5040950;28;20044;-81
2023/07/11 11:07:46;;;;;;;6.50;2.28;;;;;;;;;;5042333;28;20037;-80
2023/07/11 11:10:15;;;;;;;7.90;2.65;;;;;;;;;;5042435;28;20033;-81
2023/07/11 11:12:43;;;;;;;3.55;2.30;;;;;;;;;;5033543;28;20091;-80
2023/07/11 11:15:15;;;;;;;5.78;2.45;;;;;;;;;;5037668;28;20033;-80
2023/07/11 11:17:59;;;;;;;3.63;2.60;;;;;;;;;;5042666;28;20029;-80
2023/07/11 11:20:25;;;;;;;12.40;2.85;;;;;;;;;;5042984;28;20461;-80
2023/07/11 11:23:15;;;;;;;6.43;2.25;;;;;;;;;;5041405;28;20029;-81
2023/07/11 11:25:44;;;;;;;3.58;2.10;;;;;;;;;;5042363;28;20520;-80
2023/07/11 11:28:29;;;;;;;5.55;2.30;;;;;;;;;;5040214;28;20357;-81
2023/07/11 11:30:58;;;;;;;4.80;2.40;;;;;;;;;;5045473;28;20044;-79
2023/07/11 11:33:24;;;;;;;3.75;2.25;;;;;;;;;;5041875;28;20033;-81
2023/07/11 11:36:08;;;;;;;11.13;2.90;;;;;;;;;;5043935;28;20036;-81
2023/07/11 11:38:43;;;;;;;4.80;2.45;;;;;;;;;;5040852;28;20024;-80
2023/07/11 11:41:14;;;;;;;4.30;2.97;;;;;;;;;;5043112;28;20116;-81
2023/07/11 11:43:41;;;;;;;8.18;3.00;;;;;;;;;;5044012;28;20028;-82
2023/07/11 11:46:08;;;;;;;5.55;2.45;;;;;;;;;;5043458;28;20060;-81
2023/07/11 11:48:36;;;;;;;4.28;2.33;;;;;;;;;;5043336;28;20045;-81
2023/07/11 11:51:04;;;;;;;5.22;2.38;;;;;;;;;;5040304;28;20025;-81
2023/07/11 11:53:43;;;;;;;4.30;2.42;;;;;;;;;;5043305;28;20029;-82
2023/07/11 11:56:11;;;;;;;3.65;2.28;;;;;;;;;;5038153;28;20116;-81
2023/07/11 11:58:46;;;;;;;9.95;3.05;;;;;;;;;;5040524;28;20029;-80
2023/07/11 12:01:31;;;;;;;4.70;3.00;;;;;;;;;;5045124;28;20032;-80
2023/07/11 12:03:57;;;;;;;10.07;2.45;;;;;;;;;;5040804;28;20082;-80
2023/07/11 12:06:35;;;;;;;6.60;2.90;;;;;;;;;;5036962;28;20021;-80
2023/07/11 12:09:16;;;;;;;8.82;2.85;;;;;;;;;;5041897;28;20033;-81
2023/07/11 12:12:04;;;;;;;11.48;3.30;;;;;;;;;;5041174;28;20086;-80
2023/07/11 12:14:36;;;;;;;5.78;3.58;;;;;;;;;;5039757;28;20033;-80
2023/07/11 12:17:02;;;;;;;5.47;3.28;;;;;;;;;;5040294;28;20940;-80
2023/07/11 12:19:31;;;;;;;5.72;2.88;;;;;;;;;;5040026;28;20025;-80
2023/07/11 12:22:01;;;;;;;7.05;2.70;;;;;;;;;;5041106;28;20075;-81
2023/07/11 12:24:33;;;;;;;8.32;3.17;;;;;;;;;;5042070;28;20422;-79
2023/07/11 12:27:09;;;;;;;6.50;3.22;;;;;;;;;;5041093;28;20111;-79
2023/07/11 12:29:35;;;;;;;4.70;3.28;;;;;;;;;;5040207;28;20025;-81
2023/07/11 12:32:20;;;;;;;4.75;2.70;;;;;;;;;;5040676;28;20025;-79
2023/07/11 12:34:46;;;;;;;3.85;2.80;;;;;;;;;;5041407;28;20442;-80
2023/07/11 12:37:12;;;;;;;6.80;3.03;;;;;;;;;;5041528;28;20030;-81
2023/07/11 12:39:41;;;;;;;6.97;3.40;;;;;;;;;;5042625;28;20021;-80
2023/07/11 12:42:24;;;;;;;3.67;2.85;;;;;;;;;;5044605;28;20030;-81
2023/07/11 12:44:50;;;;;;;7.18;3.20;;;;;;;;;;5044088;28;20032;-80
2023/07/11 12:47:19;;;;;;;3.88;2.78;;;;;;;;;;5042406;28;20017;-80
2023/07/11 12:49:47;;;;;;;7.82;3.42;;;;;;;;;;5039963;28;20033;-81
2023/07/11 12:52:15;;;;;;;4.03;2.90;;;;;;;;;;5040004;28;20025;-80
2023/07/11 12:54:42;;;;;;;4.40;3.22;;;;;;;;;;5041664;28;20032;-80
2023/07/11 12:57:17;;;;;;;4.45;3.30;;;;;;;;;;5040061;28;20029;-80
2023/07/11 12:59:43;;;;;;;5.88;3.25;;;;;;;;;;5040943;28;20116;-79
2023/07/11 13:02:13;;;;;;;8.43;3.42;;;;;;;;;;5040806;28;20029;-81
2023/07/11 13:04:50;;;;;;;5.22;2.90;;;;;;;;;;5040936;28;20045;-81
2023/07/11 13:07:18;;;;;;;5.97;3.28;;;;;;;;;;5043134;28;20036;-80
2023/07/11 13:09:49;;;;;;;7.22;3.58;;;;;;;;;;5045310;28;20099;-81
2023/07/11 13:12:19;;;;;;;13.40;3.83;;;;;;;;;;5042471;28;20032;-82
2023/07/11 13:14:47;;;;;;;5.82;3.22;;;;;;;;;;5046172;28;20191;-79
2023/07/11 13:17:14;;;;;;;6.45;3.55;;;;;;;;;;5037542;28;20029;-81
2023/07/11 13:19:41;;;;;;;4.20;2.90;;;;;;;;;;5043250;28;20029;-81
2023/07/11 13:22:12;;;;;;;10.35;3.20;;;;;;;;;;5039348;28;21542;-80
2023/07/11 13:24:38;;;;;;;4.20;3.05;;;;;;;;;;5042898;28;20032;-80
2023/07/11 13:27:05;;;;;;;4.90;3.38;;;;;;;;;;5040863;28;20040;-81
2023/07/11 13:29:39;;;;;;;8.98;3.70;;;;;;;;;;5043275;28;20030;-80
2023/07/11 13:32:11;;;;;;;4.43;3.10;;;;;;;;;;5045815;28;20024;-80
2023/07/11 13:34:38;;;;;;;4.85;3.38;;;;;;;;;;5043034;28;20032;-79
2023/07/11 13:37:07;;;;;;;5.68;3.67;;;;;;;;;;5047093;28;20056;-80
2023/07/11 13:39:43;;;;;;;6.72;3.88;;;;;;;;;;5039554;28;20045;-81
2023/07/11 13:42:12;;;;;;;4.65;3.38;;;;;;;;;;5036839;28;21777;-81
2023/07/11 13:44:41;;;;;;;5.18;3.92;;;;;;;;;;5044822;28;20029;-80
2023/07/11 13:47:25;;;;;;;5.05;3.75;;;;;;;;;;5042302;28;20028;-80
2023/07/11 13:50:00;;;;;;;7.15;4.07;;;;;;;;;;5044311;28;20021;-81
2023/07/11 13:52:28;;;;;;;9.27;4.35;;;;;;;;;;5042184;28;20593;-81
2023/07/11 13:54:55;;;;;;;6.28;3.75;;;;;;;;;;5044025;28;20033;-81
2023/07/11 13:57:21;;;;;;;5.18;4.15;;;;;;;;;;5043257;28;20116;-81
2023/07/11 13:59:47;;;;;;;5.78;4.25;;;;;;;;;;5043308;28;20029;-81
2023/07/11 14:02:18;;;;;;;7.20;4.55;;;;;;;;;;5044789;28;20025;-81
2023/07/11 14:04:47;;;;;;;6.15;4.07;;;;;;;;;;5041908;28;20390;-80
2023/07/11 14:07:16;;;;;;;6.78;3.70;;;;;;;;;;5042972;28;20048;-81
2023/07/11 14:09:42;;;;;;;4.65;3.90;;;;;;;;;;5044598;28;20025;-81
2023/07/11 14:12:14;;;;;;;4.85;3.60;;;;;;;;;;5047640;28;20094;-80
2023/07/11 14:14:40;;;;;;;6.85;3.92;;;;;;;;;;5042753;28;20021;-81
2023/07/11 14:17:10;;;;;;;5.53;3.97;;;;;;;;;;5042074;28;20028;-83
2023/07/11 14:19:37;;;;;;;4.50;3.80;;;;;;;;;;5042871;28;20025;-81
2023/07/11 14:22:12;;;;;;;6.50;4.03;;;;;;;;;;5043268;28;20021;-81
2023/07/11 14:24:41;;;;;;;7.43;3.45;;;;;;;;;;5044185;28;20049;-81
2023/07/11 14:27:11;;;;;;;4.20;2.75;;;;;;;;;;5043147;28;20044;-82
2023/07/11 14:29:37;;;;;;;6.35;3.17;;;;;;;;;;5042725;28;20087;-81
2023/07/11 14:32:04;;;;;;;4.75;3.00;;;;;;;;;;5042919;28;20358;-80
2023/07/11 14:34:31;;;;;;;4.00;2.55;;;;;;;;;;5044366;28;20114;-81
2023/07/11 14:36:57;;;;;;;5.85;2.95;;;;;;;;;;5042364;28;20037;-82
2023/07/11 14:39:23;;;;;;;3.08;2.65;;;;;;;;;;5041129;28;20029;-81
2023/07/11 14:41:50;;;;;;;5.40;2.47;;;;;;;;;;5044314;28;20053;-81
2023/07/11 14:44:19;;;;;;;4.55;2.80;;;;;;;;;;5042406;28;20025;-81
2023/07/11 14:46:48;;;;;;;4.80;2.92;;;;;;;;;;5042649;28;20106;-80
2023/07/11 14:49:13;;;;;;;5.68;3.15;;;;;;;;;;5041874;28;20044;-81